Time;durP1;ratioP1;P1;durP2;ratioP2;P2;SDS_P1;SDS_P2;PMS_P1;PMS_P2;Temp;Humidity;BMP_temperature;BMP_pressure;BME280_temperature;BME280_humidity;BME280_pressure;Samples;Min_cycle;Max_cycle;Signal;HPM_P1;HPM_P2
2021/10/07 00:00:57;;;;;;;;;86.50;86.50;;;;;;;;2;258935140;258935140;-84
2021/10/07 00:30:22;;;;;;;;;102.00;102.00;;;;;;;;2;261077239;261077239;-83
2021/10/07 00:36:13;;;;;;;;;83.50;81.00;;;;;;;;2;276222077;276222077;-84
2021/10/07 00:41:43;;;;;;;;;88.50;88.50;;;;;;;;2;261078046;261078046;-84
2021/10/07 00:44:20;;;;;;;;;93.50;93.50;;;;;;;;2;156645621;156645621;-84
2021/10/07 00:47:02;;;;;;;;;;;;;;;;;;;;;
2021/10/07 00:50:57;;;;;;;;;;;;;;;;;;1698385;30;165919880;-88
2021/10/07 01:07:17;;;;;;;;;;;;;;;;;;;;;
2021/10/07 01:15:42;;;;;;;;;;;;;;;;;;;;;
2021/10/07 01:26:20;;;;;;;;;87.00;87.00;;;;;;;;3;12417000;163905018;-84
2021/10/07 01:28:51;;;;;;;;;120.60;120.60;;;;;;;;4660333;30;14292;-84
2021/10/07 01:31:17;;;;;;;;;103.80;103.80;;;;;;;;4657659;30;9116;-84
2021/10/07 01:33:42;;;;;;;;;112.40;112.40;;;;;;;;4654861;30;9627;-84
2021/10/07 01:36:10;;;;;;;;;112.50;112.50;;;;;;;;4666595;30;8869;-84
2021/10/07 01:43:02;;;;;;;;;72.50;65.50;;;;;;;;2574576;30;240052657;-84
2021/10/07 01:51:15;;;;;;;;;;;;;;;;;;2;288084097;288084097;-85
2021/10/07 01:54:13;;;;;;;;;;;;;;;;;;;;;
2021/10/07 01:59:42;;;;;;;;;105.00;105.00;;;;;;;;141288;30;260511201;-86
2021/10/07 02:10:40;;;;;;;;;93.50;93.50;;;;;;;;3;119652924;279019795;-85
2021/10/07 02:14:37;;;;;;;;;96.00;96.00;;;;;;;;252021;30;225926520;-85
2021/10/07 02:17:02;;;;;;;;;108.00;108.00;;;;;;;;838063;30;63582002;-86
2021/10/07 02:25:05;;;;;;;;;;;;;;;;;;127544;30;161001094;-86
2021/10/07 02:33:20;;;;;;;;;76.50;73.00;;;;;;;;2;261075756;261075756;-86
2021/10/07 02:37:10;;;;;;;;;89.50;89.50;;;;;;;;2;228746859;228746859;-86
2021/10/07 02:39:36;;;;;;;;;96.00;96.00;;;;;;;;209872;30;138425810;-86
2021/10/07 02:44:27;;;;;;;;;;;;;;;;;;219981;30;253288166;-86
2021/10/07 02:52:47;;;;;;;;;78.00;76.50;;;;;;;;194882;30;211572408;-86
2021/10/07 03:02:15;;;;;;;;;90.50;90.00;;;;;;;;2;288086455;288086455;-86
2021/10/07 03:06:52;;;;;;;;;91.50;91.50;;;;;;;;2;261076852;261076852;-87
2021/10/07 03:17:55;;;;;;;;;80.50;75.50;;;;;;;;758599;30;288082207;-86
2021/10/07 03:26:13;;;;;;;;;94.50;94.50;;;;;;;;2;261077519;261077519;-86
2021/10/07 03:35:40;;;;;;;;;93.50;93.50;;;;;;;;2;288086184;288086184;-86
2021/10/07 03:43:56;;;;;;;;;83.00;82.50;;;;;;;;2;261079991;261079991;-86
2021/10/07 03:53:31;;;;;;;;;82.00;81.50;;;;;;;;2;288084841;288084841;-86
2021/10/07 04:01:46;;;;;;;;;89.50;89.50;;;;;;;;2;261078501;261078501;-86
2021/10/07 04:11:14;;;;;;;;;81.50;80.00;;;;;;;;2;288084855;288084855;-86
2021/10/07 04:19:29;;;;;;;;;83.00;83.00;;;;;;;;2;261074402;261074402;-86
2021/10/07 04:28:57;;;;;;;;;76.50;73.00;;;;;;;;2;288085232;288085232;-85
2021/10/07 04:34:13;;;;;;;;;76.50;72.50;;;;;;;;2;261074802;261074802;-86
2021/10/07 04:44:30;;;;;;;;;78.50;77.00;;;;;;;;700616;30;261078201;-87
2021/10/07 04:53:57;;;;;;;;;82.00;81.00;;;;;;;;2;288086216;288086216;-83
2021/10/07 05:02:13;;;;;;;;;76.50;72.50;;;;;;;;2;261076742;261076742;-84
2021/10/07 05:11:40;;;;;;;;;74.50;69.00;;;;;;;;2;288085099;288085099;-82
2021/10/07 05:19:56;;;;;;;;;74.50;70.00;;;;;;;;2;261077246;261077246;-81
2021/10/07 05:29:23;;;;;;;;;75.50;71.00;;;;;;;;2;288085870;288085870;-81
2021/10/07 05:37:39;;;;;;;;;73.50;68.50;;;;;;;;2;261076450;261076450;-82
2021/10/07 05:47:06;;;;;;;;;77.00;74.00;;;;;;;;2;288079108;288079108;-81
2021/10/07 05:55:22;;;;;;;;;81.50;80.00;;;;;;;;2;261076875;261076875;-85
2021/10/07 06:02:00;;;;;;;;;82.50;80.00;;;;;;;;2;288084080;288084080;-83
2021/10/07 06:04:25;;;;;;;;;101.20;101.20;;;;;;;;2851833;30;12564437;-87
2021/10/07 06:06:51;;;;;;;;;100.00;100.00;;;;;;;;4592153;30;1995520;-86
2021/10/07 06:09:39;;;;;;;;;;;;;;;;;;2695621;30;59158586;-80
2021/10/07 06:15:38;;;;;;;;;37.00;32.50;;;;;;;;1260164;30;271449658;-82
2021/10/07 06:18:04;;;;;;;;;103.33;103.33;;;;;;;;3772135;30;15052907;-82
2021/10/07 06:23:22;;;;;;;;;99.00;99.00;;;;;;;;935906;30;242802513;-82
2021/10/07 06:34:02;;;;;;;;;79.00;78.50;;;;;;;;982448;30;234069064;-82
2021/10/07 06:43:02;;;;;;;;;96.00;96.00;;;;;;;;2;279081252;279081252;-82
2021/10/07 06:51:45;;;;;;;;;87.00;87.00;;;;;;;;2;234070255;234070255;-82
2021/10/07 07:00:45;;;;;;;;;74.00;69.00;;;;;;;;2;279081112;279081112;-84
2021/10/07 07:09:30;;;;;;;;;83.00;83.00;;;;;;;;2;234069655;234069655;-84
2021/10/07 07:18:31;;;;;;;;;93.50;89.50;;;;;;;;2;279084298;279084298;-79
2021/10/07 07:27:14;;;;;;;;;71.50;63.50;;;;;;;;2;234068608;234068608;-80
2021/10/07 07:36:18;;;;;;;;;72.50;65.50;;;;;;;;2;279085713;279085713;-84
2021/10/07 07:45:05;;;;;;;;;77.50;74.50;;;;;;;;2;234067840;234067840;-84
2021/10/07 07:54:06;;;;;;;;;76.50;73.00;;;;;;;;2;279083092;279083092;-81
2021/10/07 08:05:17;;;;;;;;;66.50;57.00;;;;;;;;3;103150803;288084547;-81
2021/10/07 08:13:32;;;;;;;;;64.50;53.50;;;;;;;;2;261074453;261074453;-81
2021/10/07 08:20:39;;;;;;;;;75.00;70.50;;;;;;;;2;288086678;288086678;-81
2021/10/07 08:23:05;;;;;;;;;72.25;61.50;;;;;;;;4668237;30;39558;-81
2021/10/07 08:25:33;;;;;;;;;80.50;76.50;;;;;;;;3731905;30;9832054;-81
2021/10/07 08:28:18;;;;;;;;;;;;;;;;;;975127;30;129619137;-81
2021/10/07 08:30:50;;;;;;;;;23.00;21.50;;;;;;;;3846496;30;26489795;-81
2021/10/07 08:33:17;;;;;;;;;74.67;66.33;;;;;;;;3645009;30;31700215;-81
2021/10/07 08:36:03;;;;;;;;;59.00;49.50;;;;;;;;4127928;30;36041161;-81
2021/10/07 08:45:08;;;;;;;;;;;;;;;;;;144147;30;279082286;-85
2021/10/07 08:56:01;;;;;;;;;46.00;39.50;;;;;;;;320924;30;234069075;-84
2021/10/07 09:05:06;;;;;;;;;64.00;54.00;;;;;;;;2;279077860;279077860;-84
2021/10/07 09:13:49;;;;;;;;;67.00;60.00;;;;;;;;2;234071805;234071805;-84
2021/10/07 09:22:49;;;;;;;;;66.50;56.50;;;;;;;;2;279080640;279080640;-84
2021/10/07 09:31:33;;;;;;;;;58.00;48.50;;;;;;;;2;234069679;234069679;-84
2021/10/07 09:40:34;;;;;;;;;49.50;42.50;;;;;;;;2;279082993;279082993;-84
2021/10/07 09:49:16;;;;;;;;;69.50;61.00;;;;;;;;2;234070784;234070784;-84
2021/10/07 09:58:27;;;;;;;;;66.00;55.50;;;;;;;;2;279079339;279079339;-84
2021/10/07 10:07:09;;;;;;;;;47.50;41.50;;;;;;;;2;234069549;234069549;-83
2021/10/07 10:16:10;;;;;;;;;44.00;38.50;;;;;;;;2;279082385;279082385;-83
2021/10/07 10:24:53;;;;;;;;;36.50;32.50;;;;;;;;2;234068101;234068101;-83
2021/10/07 10:34:02;;;;;;;;;39.00;35.00;;;;;;;;2;279081630;279081630;-83
2021/10/07 10:42:44;;;;;;;;;47.50;41.00;;;;;;;;2;234069389;234069389;-83
2021/10/07 10:51:48;;;;;;;;;32.00;31.00;;;;;;;;2;279083574;279083574;-83
2021/10/07 10:54:15;;;;;;;;;55.00;46.50;;;;;;;;222393;30;132372733;-83
2021/10/07 10:57:39;;;;;;;;;61.00;51.00;;;;;;;;515616;30;110663074;-83
2021/10/07 11:00:06;;;;;;;;;34.75;33.00;;;;;;;;1584984;30;68797216;-83
2021/10/07 11:02:32;;;;;;;;;;;;;;;;;;3755314;30;28293477;-83
2021/10/07 11:04:57;;;;;;;;;55.50;46.75;;;;;;;;4115457;30;8471181;-83
2021/10/07 11:15:20;;;;;;;;;;;;;;;;;;1348949;30;275118060;-83
2021/10/07 11:24:12;;;;;;;;;12.50;12.50;;;;;;;;2;234068881;234068881;-83
2021/10/07 11:31:18;;;;;;;;;27.50;26.00;;;;;;;;2;164035776;164035776;-83
2021/10/07 11:40:19;;;;;;;;;40.00;36.00;;;;;;;;2;234068141;234068141;-83
2021/10/07 11:47:14;;;;;;;;;61.50;50.50;;;;;;;;159561;30;234070258;-82
2021/10/07 11:49:39;;;;;;;;;42.00;37.00;;;;;;;;3406921;30;30900811;-83
2021/10/07 11:59:00;;;;;;;;;;;;;;;;;;658669;30;279080370;-82
2021/10/07 12:07:12;;;;;;;;;64.00;52.50;;;;;;;;2572364;30;261074806;-83
2021/10/07 12:10:09;;;;;;;;;21.50;21.50;;;;;;;;2354050;30;35065961;-82
2021/10/07 12:12:34;;;;;;;;;50.75;42.75;;;;;;;;4408722;30;8005153;-83
2021/10/07 12:15:00;;;;;;;;;45.75;40.00;;;;;;;;4335395;30;10295002;-83
2021/10/07 12:17:25;;;;;;;;;37.33;34.67;;;;;;;;4659903;30;33188;-83
2021/10/07 12:23:44;;;;;;;;;29.00;29.00;;;;;;;;3952492;30;243235318;-83
2021/10/07 12:31:32;;;;;;;;;12.50;12.50;;;;;;;;1447945;30;276690397;-82
2021/10/07 12:41:12;;;;;;;;;54.50;46.00;;;;;;;;2097729;30;226560915;-82
2021/10/07 12:50:14;;;;;;;;;20.50;18.00;;;;;;;;2;279082217;279082217;-82
2021/10/07 13:01:26;;;;;;;;;47.50;40.50;;;;;;;;160273;30;279084539;-82
2021/10/07 13:10:08;;;;;;;;;;;;;;;;;;2;234067650;234067650;-82
2021/10/07 13:19:05;;;;;;;;;12.00;12.00;;;;;;;;2;279082062;279082062;-82
2021/10/07 13:27:48;;;;;;;;;26.00;23.00;;;;;;;;2;234069953;234069953;-82
2021/10/07 13:36:49;;;;;;;;;29.00;27.50;;;;;;;;2;279080055;279080055;-82
2021/10/07 13:45:31;;;;;;;;;44.00;38.50;;;;;;;;2;234068686;234068686;-82
2021/10/07 13:54:32;;;;;;;;;38.50;34.50;;;;;;;;2;279082386;279082386;-82
2021/10/07 14:03:14;;;;;;;;;24.50;24.50;;;;;;;;2;234069218;234069218;-82
2021/10/07 14:12:15;;;;;;;;;46.50;40.00;;;;;;;;2;279081887;279081887;-82
2021/10/07 14:20:58;;;;;;;;;22.50;22.50;;;;;;;;2;234067301;234067301;-82
2021/10/07 14:29:58;;;;;;;;;39.00;35.00;;;;;;;;2;279083235;279083235;-81
2021/10/07 14:38:41;;;;;;;;;39.00;35.00;;;;;;;;2;234071420;234071420;-82
2021/10/07 14:47:42;;;;;;;;;22.00;22.00;;;;;;;;2;279082852;279082852;-82
2021/10/07 14:56:24;;;;;;;;;30.50;27.50;;;;;;;;2;234067561;234067561;-81
2021/10/07 15:05:25;;;;;;;;;28.50;28.00;;;;;;;;2;279081875;279081875;-81
2021/10/07 15:14:07;;;;;;;;;46.50;39.00;;;;;;;;2;234068004;234068004;-82
2021/10/07 15:23:08;;;;;;;;;48.50;41.50;;;;;;;;2;279082724;279082724;-81
2021/10/07 15:31:50;;;;;;;;;41.50;37.00;;;;;;;;2;234068285;234068285;-81
2021/10/07 15:40:51;;;;;;;;;20.00;20.00;;;;;;;;2;279081645;279081645;-81
2021/10/07 15:49:33;;;;;;;;;24.00;23.50;;;;;;;;2;234072136;234072136;-81
2021/10/07 15:58:35;;;;;;;;;33.50;32.00;;;;;;;;2;279078356;279078356;-81
2021/10/07 16:07:17;;;;;;;;;33.50;30.00;;;;;;;;2;234068022;234068022;-81
2021/10/07 16:19:39;;;;;;;;;35.00;31.00;;;;;;;;2;279081318;279081318;-82
2021/10/07 16:22:11;;;;;;;;;29.50;26.00;;;;;;;;2;151506304;151506304;-82
2021/10/07 16:33:54;;;;;;;;;63.00;51.00;;;;;;;;3032949;30;288081693;-81
2021/10/07 16:42:09;;;;;;;;;;;;;;;;;;2;261073501;261073501;-81
2021/10/07 16:44:34;;;;;;;;;66.00;54.00;;;;;;;;393996;30;125489978;-81
2021/10/07 16:48:21;;;;;;;;;;;;;;;;;;77051;30;224254197;-81
2021/10/07 16:58:53;;;;;;;;;16.00;16.00;;;;;;;;315710;30;279079066;-81
2021/10/07 17:07:37;;;;;;;;;51.00;43.50;;;;;;;;2;234070224;234070224;-80
2021/10/07 17:14:27;;;;;;;;;51.00;43.50;;;;;;;;2;279084266;279084266;-78
2021/10/07 17:23:09;;;;;;;;;49.50;42.50;;;;;;;;2;234072645;234072645;-78
2021/10/07 17:32:10;;;;;;;;;39.50;33.50;;;;;;;;2;279080254;279080254;-78
2021/10/07 17:40:52;;;;;;;;;42.50;37.50;;;;;;;;2;234068174;234068174;-80
2021/10/07 17:49:53;;;;;;;;;30.50;29.00;;;;;;;;2;279083006;279083006;-81
2021/10/07 17:58:35;;;;;;;;;45.00;39.50;;;;;;;;2;234069580;234069580;-81
2021/10/07 18:07:36;;;;;;;;;46.00;40.00;;;;;;;;2;279082841;279082841;-83
2021/10/07 18:16:35;;;;;;;;;54.00;45.50;;;;;;;;2;234070181;234070181;-84
2021/10/07 18:25:36;;;;;;;;;68.00;59.00;;;;;;;;2;279083639;279083639;-80
2021/10/07 18:34:19;;;;;;;;;64.00;55.50;;;;;;;;2;233974520;233974520;-80
2021/10/07 18:38:23;;;;;;;;;72.50;66.50;;;;;;;;2;243085066;243085066;-80
2021/10/07 18:47:10;;;;;;;;;73.00;67.00;;;;;;;;139352;30;234068802;-81
2021/10/07 18:56:10;;;;;;;;;72.50;63.50;;;;;;;;2;279083905;279083905;-80
2021/10/07 19:04:53;;;;;;;;;73.00;67.50;;;;;;;;2;234072247;234072247;-80
2021/10/07 19:13:53;;;;;;;;;77.00;72.00;;;;;;;;2;279081791;279081791;-79
2021/10/07 19:22:37;;;;;;;;;72.50;67.00;;;;;;;;2;234069970;234069970;-79
2021/10/07 19:31:37;;;;;;;;;85.00;84.50;;;;;;;;2;279084744;279084744;-78
2021/10/07 19:40:20;;;;;;;;;78.00;75.50;;;;;;;;2;234070565;234070565;-79
2021/10/07 19:49:21;;;;;;;;;71.00;63.50;;;;;;;;2;279095665;279095665;-79
2021/10/07 19:58:03;;;;;;;;;85.50;85.00;;;;;;;;2;234070657;234070657;-79
2021/10/07 20:02:31;;;;;;;;;70.50;64.00;;;;;;;;2;267497521;267497521;-78
2021/10/07 20:12:09;;;;;;;;;69.00;62.00;;;;;;;;312318;30;288083912;-79
2021/10/07 20:20:24;;;;;;;;;68.50;61.00;;;;;;;;2;261075705;261075705;-79
2021/10/07 20:29:52;;;;;;;;;78.00;75.00;;;;;;;;2;288084628;288084628;-78
2021/10/07 20:38:10;;;;;;;;;77.00;70.00;;;;;;;;2;261079107;261079107;-78
2021/10/07 20:47:37;;;;;;;;;71.50;65.50;;;;;;;;2;288086944;288086944;-78
2021/10/07 20:55:53;;;;;;;;;92.50;91.50;;;;;;;;2;261077732;261077732;-79
2021/10/07 21:05:20;;;;;;;;;98.00;98.00;;;;;;;;2;288083644;288083644;-79
2021/10/07 21:13:36;;;;;;;;;80.00;77.00;;;;;;;;2;261076151;261076151;-78
2021/10/07 21:23:03;;;;;;;;;71.50;66.00;;;;;;;;2;288082670;288082670;-78
2021/10/07 21:31:19;;;;;;;;;78.50;74.00;;;;;;;;2;261076944;261076944;-78
2021/10/07 21:40:47;;;;;;;;;78.00;73.50;;;;;;;;2;288083726;288083726;-80
2021/10/07 21:49:02;;;;;;;;;79.00;76.00;;;;;;;;2;261080050;261080050;-81
2021/10/07 21:58:30;;;;;;;;;74.00;68.50;;;;;;;;2;288080678;288080678;-81
2021/10/07 22:06:45;;;;;;;;;81.50;78.50;;;;;;;;2;261077505;261077505;-80
2021/10/07 22:16:13;;;;;;;;;86.50;84.50;;;;;;;;2;288086478;288086478;-79
2021/10/07 22:24:29;;;;;;;;;81.50;77.50;;;;;;;;2;261075580;261075580;-79
2021/10/07 22:33:59;;;;;;;;;85.50;84.00;;;;;;;;2;288084717;288084717;-79
2021/10/07 22:42:15;;;;;;;;;76.50;70.50;;;;;;;;2;261074886;261074886;-79
2021/10/07 22:51:43;;;;;;;;;74.50;69.00;;;;;;;;2;288084916;288084916;-79
2021/10/07 22:59:58;;;;;;;;;75.50;70.50;;;;;;;;2;261076519;261076519;-79
2021/10/07 23:09:26;;;;;;;;;80.50;76.50;;;;;;;;2;288084562;288084562;-79
2021/10/07 23:17:41;;;;;;;;;84.00;82.50;;;;;;;;2;261074084;261074084;-79
2021/10/07 23:27:09;;;;;;;;;76.00;71.50;;;;;;;;2;288083943;288083943;-79
2021/10/07 23:35:24;;;;;;;;;76.50;71.50;;;;;;;;2;261077673;261077673;-80
2021/10/07 23:44:52;;;;;;;;;88.00;88.00;;;;;;;;2;288084663;288084663;-79
2021/10/07 23:53:07;;;;;;;;;88.00;87.00;;;;;;;;2;260573481;260573481;-79
